sensor_id;sensor_type;location;lat;lon;timestamp;temperature;humidity
44477;DHT22;30180;44.788;10.366;2022-12-07T00:01:26;17.70;69.10
44477;DHT22;30180;44.788;10.366;2022-12-07T00:03:56;17.70;69.10
44477;DHT22;30180;44.788;10.366;2022-12-07T00:06:31;17.70;69.10
44477;DHT22;30180;44.788;10.366;2022-12-07T00:08:59;17.60;69.10
44477;DHT22;30180;44.788;10.366;2022-12-07T00:11:28;17.60;69.10
44477;DHT22;30180;44.788;10.366;2022-12-07T00:13:58;17.60;69.10
44477;DHT22;30180;44.788;10.366;2022-12-07T00:16:28;17.60;69.10
44477;DHT22;30180;44.788;10.366;2022-12-07T00:18:58;17.60;69.10
44477;DHT22;30180;44.788;10.366;2022-12-07T00:21:27;17.60;69.10
44477;DHT22;30180;44.788;10.366;2022-12-07T00:23:56;17.60;69.10
44477;DHT22;30180;44.788;10.366;2022-12-07T00:26:27;17.60;69.10
44477;DHT22;30180;44.788;10.366;2022-12-07T00:28:58;17.60;69.10
44477;DHT22;30180;44.788;10.366;2022-12-07T00:31:29;17.60;69.20
44477;DHT22;30180;44.788;10.366;2022-12-07T00:33:57;17.60;69.10
44477;DHT22;30180;44.788;10.366;2022-12-07T00:36:26;17.60;69.10
44477;DHT22;30180;44.788;10.366;2022-12-07T00:38:54;17.60;69.20
44477;DHT22;30180;44.788;10.366;2022-12-07T00:41:24;17.60;69.20
44477;DHT22;30180;44.788;10.366;2022-12-07T00:43:53;17.50;69.10
44477;DHT22;30180;44.788;10.366;2022-12-07T00:46:23;17.60;69.20
44477;DHT22;30180;44.788;10.366;2022-12-07T00:48:53;17.50;69.10
44477;DHT22;30180;44.788;10.366;2022-12-07T00:51:23;17.50;69.10
44477;DHT22;30180;44.788;10.366;2022-12-07T00:53:52;17.60;69.20
44477;DHT22;30180;44.788;10.366;2022-12-07T00:56:21;17.50;69.10
44477;DHT22;30180;44.788;10.366;2022-12-07T00:58:52;17.50;69.10
44477;DHT22;30180;44.788;10.366;2022-12-07T01:01:22;17.50;69.10
44477;DHT22;30180;44.788;10.366;2022-12-07T01:03:51;17.50;69.10
44477;DHT22;30180;44.788;10.366;2022-12-07T01:06:20;17.50;69.10
44477;DHT22;30180;44.788;10.366;2022-12-07T01:08:49;17.50;69.10
44477;DHT22;30180;44.788;10.366;2022-12-07T01:11:20;17.50;69.10
44477;DHT22;30180;44.788;10.366;2022-12-07T01:13:50;17.50;69.10
44477;DHT22;30180;44.788;10.366;2022-12-07T01:16:19;17.50;69.10
44477;DHT22;30180;44.788;10.366;2022-12-07T01:18:51;17.50;69.10
44477;DHT22;30180;44.788;10.366;2022-12-07T01:21:21;17.50;69.10
44477;DHT22;30180;44.788;10.366;2022-12-07T01:23:50;17.40;69.00
44477;DHT22;30180;44.788;10.366;2022-12-07T01:26:20;17.50;69.10
44477;DHT22;30180;44.788;10.366;2022-12-07T01:28:49;17.50;69.10
44477;DHT22;30180;44.788;10.366;2022-12-07T01:31:19;17.50;69.20
44477;DHT22;30180;44.788;10.366;2022-12-07T01:33:52;17.40;69.10
44477;DHT22;30180;44.788;10.366;2022-12-07T01:36:22;17.40;69.10
44477;DHT22;30180;44.788;10.366;2022-12-07T01:38:54;17.40;69.10
44477;DHT22;30180;44.788;10.366;2022-12-07T01:41:24;17.40;69.10
44477;DHT22;30180;44.788;10.366;2022-12-07T01:47:00;17.40;69.10
44477;DHT22;30180;44.788;10.366;2022-12-07T01:49:33;17.40;69.10
44477;DHT22;30180;44.788;10.366;2022-12-07T01:52:07;17.40;69.10
44477;DHT22;30180;44.788;10.366;2022-12-07T01:54:37;17.40;69.20
44477;DHT22;30180;44.788;10.366;2022-12-07T01:57:07;17.40;69.10
44477;DHT22;30180;44.788;10.366;2022-12-07T01:59:36;17.40;69.10
44477;DHT22;30180;44.788;10.366;2022-12-07T02:02:08;17.40;69.20
44477;DHT22;30180;44.788;10.366;2022-12-07T02:04:39;17.40;69.20
44477;DHT22;30180;44.788;10.366;2022-12-07T02:07:08;17.40;69.20
44477;DHT22;30180;44.788;10.366;2022-12-07T02:09:36;17.40;69.20
44477;DHT22;30180;44.788;10.366;2022-12-07T02:12:05;17.40;69.20
44477;DHT22;30180;44.788;10.366;2022-12-07T02:14:34;17.40;69.20
44477;DHT22;30180;44.788;10.366;2022-12-07T02:17:08;17.40;69.20
44477;DHT22;30180;44.788;10.366;2022-12-07T02:20:03;17.40;69.20
44477;DHT22;30180;44.788;10.366;2022-12-07T02:23:20;17.40;69.20
44477;DHT22;30180;44.788;10.366;2022-12-07T02:26:02;17.30;69.10
44477;DHT22;30180;44.788;10.366;2022-12-07T02:28:50;17.40;69.20
44477;DHT22;30180;44.788;10.366;2022-12-07T02:31:20;17.40;69.20
44477;DHT22;30180;44.788;10.366;2022-12-07T02:33:53;17.30;69.20
44477;DHT22;30180;44.788;10.366;2022-12-07T02:36:28;17.30;69.10
44477;DHT22;30180;44.788;10.366;2022-12-07T02:39:00;17.30;69.10
44477;DHT22;30180;44.788;10.366;2022-12-07T02:41:35;17.30;69.20
44477;DHT22;30180;44.788;10.366;2022-12-07T02:44:08;17.30;69.20
44477;DHT22;30180;44.788;10.366;2022-12-07T02:46:42;17.30;69.20
44477;DHT22;30180;44.788;10.366;2022-12-07T02:49:11;17.30;69.20
44477;DHT22;30180;44.788;10.366;2022-12-07T02:51:41;17.30;69.20
44477;DHT22;30180;44.788;10.366;2022-12-07T02:54:12;17.30;69.20
44477;DHT22;30180;44.788;10.366;2022-12-07T02:56:48;17.30;69.20
44477;DHT22;30180;44.788;10.366;2022-12-07T02:59:28;17.30;69.20
44477;DHT22;30180;44.788;10.366;2022-12-07T03:02:08;17.30;69.20
44477;DHT22;30180;44.788;10.366;2022-12-07T03:04:45;17.30;69.20
44477;DHT22;30180;44.788;10.366;2022-12-07T03:07:21;17.30;69.20
44477;DHT22;30180;44.788;10.366;2022-12-07T03:10:00;17.30;69.20
44477;DHT22;30180;44.788;10.366;2022-12-07T03:12:32;17.30;69.20
44477;DHT22;30180;44.788;10.366;2022-12-07T03:15:08;17.30;69.20
44477;DHT22;30180;44.788;10.366;2022-12-07T03:17:40;17.30;69.20
44477;DHT22;30180;44.788;10.366;2022-12-07T03:20:12;17.30;69.20
44477;DHT22;30180;44.788;10.366;2022-12-07T03:22:42;17.30;69.20
44477;DHT22;30180;44.788;10.366;2022-12-07T03:25:14;17.30;69.20
44477;DHT22;30180;44.788;10.366;2022-12-07T03:27:47;17.20;69.10
44477;DHT22;30180;44.788;10.366;2022-12-07T03:30:20;17.20;69.40
44477;DHT22;30180;44.788;10.366;2022-12-07T03:32:52;17.20;69.10
44477;DHT22;30180;44.788;10.366;2022-12-07T03:35:25;17.20;69.10
44477;DHT22;30180;44.788;10.366;2022-12-07T03:37:57;17.20;69.10
44477;DHT22;30180;44.788;10.366;2022-12-07T03:40:30;17.20;69.20
44477;DHT22;30180;44.788;10.366;2022-12-07T03:43:01;17.20;69.10
44477;DHT22;30180;44.788;10.366;2022-12-07T03:45:38;17.20;69.20
44477;DHT22;30180;44.788;10.366;2022-12-07T03:48:12;17.20;69.20
44477;DHT22;30180;44.788;10.366;2022-12-07T03:50:50;17.20;69.20
44477;DHT22;30180;44.788;10.366;2022-12-07T03:53:24;17.20;69.10
44477;DHT22;30180;44.788;10.366;2022-12-07T03:55:56;17.20;69.10
44477;DHT22;30180;44.788;10.366;2022-12-07T03:58:25;17.20;69.20
44477;DHT22;30180;44.788;10.366;2022-12-07T04:00:55;17.20;69.20
44477;DHT22;30180;44.788;10.366;2022-12-07T04:03:24;17.20;69.20
44477;DHT22;30180;44.788;10.366;2022-12-07T04:05:52;17.20;69.20
44477;DHT22;30180;44.788;10.366;2022-12-07T04:08:21;17.20;69.20
44477;DHT22;30180;44.788;10.366;2022-12-07T04:10:49;17.20;69.20
44477;DHT22;30180;44.788;10.366;2022-12-07T04:13:17;17.20;69.20
44477;DHT22;30180;44.788;10.366;2022-12-07T04:15:46;17.20;69.20
44477;DHT22;30180;44.788;10.366;2022-12-07T04:18:16;17.20;69.20
44477;DHT22;30180;44.788;10.366;2022-12-07T04:20:45;17.20;69.20
44477;DHT22;30180;44.788;10.366;2022-12-07T04:23:13;17.20;69.30
44477;DHT22;30180;44.788;10.366;2022-12-07T04:25:41;17.20;69.30
44477;DHT22;30180;44.788;10.366;2022-12-07T04:28:10;17.20;69.30
44477;DHT22;30180;44.788;10.366;2022-12-07T04:30:38;17.20;69.30
44477;DHT22;30180;44.788;10.366;2022-12-07T04:33:06;17.20;69.30
44477;DHT22;30180;44.788;10.366;2022-12-07T04:35:37;17.20;69.30
44477;DHT22;30180;44.788;10.366;2022-12-07T04:38:05;17.20;69.40
44477;DHT22;30180;44.788;10.366;2022-12-07T04:40:33;17.20;69.40
44477;DHT22;30180;44.788;10.366;2022-12-07T04:43:02;17.30;69.50
44477;DHT22;30180;44.788;10.366;2022-12-07T04:45:31;17.30;69.50
44477;DHT22;30180;44.788;10.366;2022-12-07T04:47:59;17.30;69.50
44477;DHT22;30180;44.788;10.366;2022-12-07T04:50:28;17.30;69.50
44477;DHT22;30180;44.788;10.366;2022-12-07T04:52:57;17.30;69.50
44477;DHT22;30180;44.788;10.366;2022-12-07T04:55:26;17.30;69.50
44477;DHT22;30180;44.788;10.366;2022-12-07T04:57:54;17.40;69.60
44477;DHT22;30180;44.788;10.366;2022-12-07T05:00:22;17.40;69.60
44477;DHT22;30180;44.788;10.366;2022-12-07T05:02:50;17.40;69.60
44477;DHT22;30180;44.788;10.366;2022-12-07T05:05:19;17.40;69.70
44477;DHT22;30180;44.788;10.366;2022-12-07T05:07:47;17.50;69.80
44477;DHT22;30180;44.788;10.366;2022-12-07T05:10:17;17.50;69.80
44477;DHT22;30180;44.788;10.366;2022-12-07T05:12:45;17.50;69.80
44477;DHT22;30180;44.788;10.366;2022-12-07T05:15:14;17.50;69.80
44477;DHT22;30180;44.788;10.366;2022-12-07T05:17:43;17.50;69.80
44477;DHT22;30180;44.788;10.366;2022-12-07T05:20:11;17.50;69.80
44477;DHT22;30180;44.788;10.366;2022-12-07T05:22:40;17.60;69.90
44477;DHT22;30180;44.788;10.366;2022-12-07T05:25:08;17.60;70.00
44477;DHT22;30180;44.788;10.366;2022-12-07T05:27:38;17.60;69.90
44477;DHT22;30180;44.788;10.366;2022-12-07T05:30:08;17.60;70.00
44477;DHT22;30180;44.788;10.366;2022-12-07T05:32:36;17.70;70.00
44477;DHT22;30180;44.788;10.366;2022-12-07T05:35:05;17.70;70.00
44477;DHT22;30180;44.788;10.366;2022-12-07T05:37:33;17.70;70.00
44477;DHT22;30180;44.788;10.366;2022-12-07T05:40:02;17.70;70.00
44477;DHT22;30180;44.788;10.366;2022-12-07T05:42:30;17.70;70.00
44477;DHT22;30180;44.788;10.366;2022-12-07T05:45:00;17.80;70.00
44477;DHT22;30180;44.788;10.366;2022-12-07T05:47:29;17.80;70.00
44477;DHT22;30180;44.788;10.366;2022-12-07T05:49:57;17.80;70.00
44477;DHT22;30180;44.788;10.366;2022-12-07T05:52:26;17.80;70.00
44477;DHT22;30180;44.788;10.366;2022-12-07T05:54:55;17.80;69.90
44477;DHT22;30180;44.788;10.366;2022-12-07T05:57:23;17.90;70.00
44477;DHT22;30180;44.788;10.366;2022-12-07T05:59:51;17.90;70.00
44477;DHT22;30180;44.788;10.366;2022-12-07T06:02:20;17.90;69.90
44477;DHT22;30180;44.788;10.366;2022-12-07T06:04:49;17.80;70.50
44477;DHT22;30180;44.788;10.366;2022-12-07T06:07:17;17.90;69.90
44477;DHT22;30180;44.788;10.366;2022-12-07T06:09:45;17.90;70.50
44477;DHT22;30180;44.788;10.366;2022-12-07T06:12:13;17.90;69.90
44477;DHT22;30180;44.788;10.366;2022-12-07T06:15:11;17.90;69.90
44477;DHT22;30180;44.788;10.366;2022-12-07T06:17:41;17.90;69.80
44477;DHT22;30180;44.788;10.366;2022-12-07T06:20:09;17.80;69.80
44477;DHT22;30180;44.788;10.366;2022-12-07T06:22:38;17.90;69.80
44477;DHT22;30180;44.788;10.366;2022-12-07T06:25:07;17.90;69.80
44477;DHT22;30180;44.788;10.366;2022-12-07T06:27:35;17.90;69.70
44477;DHT22;30180;44.788;10.366;2022-12-07T06:30:06;17.90;69.70
44477;DHT22;30180;44.788;10.366;2022-12-07T06:32:36;17.90;70.30
44477;DHT22;30180;44.788;10.366;2022-12-07T06:35:07;17.90;69.70
44477;DHT22;30180;44.788;10.366;2022-12-07T06:37:35;17.90;69.70
44477;DHT22;30180;44.788;10.366;2022-12-07T06:40:04;17.90;69.70
44477;DHT22;30180;44.788;10.366;2022-12-07T06:42:33;17.90;69.70
44477;DHT22;30180;44.788;10.366;2022-12-07T06:45:02;17.90;69.60
44477;DHT22;30180;44.788;10.366;2022-12-07T06:47:30;17.90;69.70
44477;DHT22;30180;44.788;10.366;2022-12-07T06:50:11;17.90;69.60
44477;DHT22;30180;44.788;10.366;2022-12-07T06:52:40;17.90;69.60
44477;DHT22;30180;44.788;10.366;2022-12-07T06:55:08;17.90;69.70
44477;DHT22;30180;44.788;10.366;2022-12-07T06:57:36;17.90;69.60
44477;DHT22;30180;44.788;10.366;2022-12-07T07:00:06;17.80;69.60
44477;DHT22;30180;44.788;10.366;2022-12-07T07:02:34;17.90;69.60
44477;DHT22;30180;44.788;10.366;2022-12-07T07:05:03;17.90;69.60
44477;DHT22;30180;44.788;10.366;2022-12-07T07:07:33;17.90;69.70
44477;DHT22;30180;44.788;10.366;2022-12-07T07:10:21;17.90;69.70
44477;DHT22;30180;44.788;10.366;2022-12-07T07:12:49;17.90;69.70
44477;DHT22;30180;44.788;10.366;2022-12-07T07:15:23;17.90;69.90
44477;DHT22;30180;44.788;10.366;2022-12-07T07:17:51;17.90;69.70
44477;DHT22;30180;44.788;10.366;2022-12-07T07:20:20;17.90;69.60
44477;DHT22;30180;44.788;10.366;2022-12-07T07:22:50;17.90;69.60
44477;DHT22;30180;44.788;10.366;2022-12-07T07:25:18;17.90;69.60
44477;DHT22;30180;44.788;10.366;2022-12-07T07:27:47;17.90;69.60
44477;DHT22;30180;44.788;10.366;2022-12-07T07:30:15;17.90;69.60
44477;DHT22;30180;44.788;10.366;2022-12-07T07:32:44;17.90;69.60
44477;DHT22;30180;44.788;10.366;2022-12-07T07:35:12;17.90;69.60
44477;DHT22;30180;44.788;10.366;2022-12-07T07:37:41;17.90;69.60
44477;DHT22;30180;44.788;10.366;2022-12-07T07:40:11;17.90;69.50
44477;DHT22;30180;44.788;10.366;2022-12-07T07:42:39;17.90;69.50
44477;DHT22;30180;44.788;10.366;2022-12-07T07:45:09;17.90;69.50
44477;DHT22;30180;44.788;10.366;2022-12-07T07:47:38;17.90;69.50
44477;DHT22;30180;44.788;10.366;2022-12-07T07:50:07;17.90;69.50
44477;DHT22;30180;44.788;10.366;2022-12-07T07:52:35;17.90;69.50
44477;DHT22;30180;44.788;10.366;2022-12-07T07:55:04;17.90;69.50
44477;DHT22;30180;44.788;10.366;2022-12-07T07:57:37;17.90;69.50
44477;DHT22;30180;44.788;10.366;2022-12-07T08:00:08;17.90;69.50
44477;DHT22;30180;44.788;10.366;2022-12-07T08:02:36;17.90;69.40
44477;DHT22;30180;44.788;10.366;2022-12-07T08:05:05;17.80;69.30
44477;DHT22;30180;44.788;10.366;2022-12-07T08:07:34;17.90;69.40
44477;DHT22;30180;44.788;10.366;2022-12-07T08:10:03;17.90;69.40
44477;DHT22;30180;44.788;10.366;2022-12-07T08:12:37;17.90;69.40
44477;DHT22;30180;44.788;10.366;2022-12-07T08:15:26;17.80;69.30
44477;DHT22;30180;44.788;10.366;2022-12-07T08:17:55;17.80;69.30
44477;DHT22;30180;44.788;10.366;2022-12-07T08:20:23;17.80;69.30
44477;DHT22;30180;44.788;10.366;2022-12-07T08:22:51;17.80;69.30
44477;DHT22;30180;44.788;10.366;2022-12-07T08:25:19;17.80;69.30
44477;DHT22;30180;44.788;10.366;2022-12-07T08:27:51;17.80;69.20
44477;DHT22;30180;44.788;10.366;2022-12-07T08:30:19;17.80;69.20
44477;DHT22;30180;44.788;10.366;2022-12-07T08:32:49;17.80;69.30
44477;DHT22;30180;44.788;10.366;2022-12-07T08:35:17;17.80;69.20
44477;DHT22;30180;44.788;10.366;2022-12-07T08:37:45;17.80;69.30
44477;DHT22;30180;44.788;10.366;2022-12-07T08:40:14;17.80;69.90
44477;DHT22;30180;44.788;10.366;2022-12-07T08:42:43;17.80;69.30
44477;DHT22;30180;44.788;10.366;2022-12-07T08:45:14;17.70;69.20
44477;DHT22;30180;44.788;10.366;2022-12-07T08:47:51;17.70;69.20
44477;DHT22;30180;44.788;10.366;2022-12-07T08:50:23;17.70;69.20
44477;DHT22;30180;44.788;10.366;2022-12-07T08:52:55;17.70;69.20
44477;DHT22;30180;44.788;10.366;2022-12-07T08:55:25;17.70;69.20
44477;DHT22;30180;44.788;10.366;2022-12-07T08:57:54;17.70;69.20
44477;DHT22;30180;44.788;10.366;2022-12-07T09:00:24;17.70;69.10
44477;DHT22;30180;44.788;10.366;2022-12-07T09:02:53;17.70;69.10
44477;DHT22;30180;44.788;10.366;2022-12-07T09:05:21;17.70;69.20
44477;DHT22;30180;44.788;10.366;2022-12-07T09:07:51;17.70;69.10
44477;DHT22;30180;44.788;10.366;2022-12-07T09:10:22;17.70;69.10
44477;DHT22;30180;44.788;10.366;2022-12-07T09:12:50;17.70;69.10
44477;DHT22;30180;44.788;10.366;2022-12-07T09:15:18;17.70;69.10
44477;DHT22;30180;44.788;10.366;2022-12-07T09:17:48;17.70;69.10
44477;DHT22;30180;44.788;10.366;2022-12-07T09:20:17;17.70;69.10
44477;DHT22;30180;44.788;10.366;2022-12-07T09:22:53;17.70;69.10
44477;DHT22;30180;44.788;10.366;2022-12-07T09:25:21;17.60;69.10
44477;DHT22;30180;44.788;10.366;2022-12-07T09:27:55;17.70;69.10
44477;DHT22;30180;44.788;10.366;2022-12-07T09:30:24;17.60;69.10
44477;DHT22;30180;44.788;10.366;2022-12-07T09:32:54;17.60;69.00
44477;DHT22;30180;44.788;10.366;2022-12-07T09:35:25;17.60;69.00
44477;DHT22;30180;44.788;10.366;2022-12-07T09:37:53;17.60;69.00
44477;DHT22;30180;44.788;10.366;2022-12-07T09:40:22;17.60;69.00
44477;DHT22;30180;44.788;10.366;2022-12-07T09:42:52;17.60;69.10
44477;DHT22;30180;44.788;10.366;2022-12-07T09:45:22;17.60;69.00
44477;DHT22;30180;44.788;10.366;2022-12-07T09:47:51;17.60;69.00
44477;DHT22;30180;44.788;10.366;2022-12-07T09:50:24;17.60;69.00
44477;DHT22;30180;44.788;10.366;2022-12-07T09:53:01;17.60;69.00
44477;DHT22;30180;44.788;10.366;2022-12-07T09:55:33;17.50;68.90
44477;DHT22;30180;44.788;10.366;2022-12-07T09:58:01;17.60;69.00
44477;DHT22;30180;44.788;10.366;2022-12-07T10:00:30;17.50;68.90
44477;DHT22;30180;44.788;10.366;2022-12-07T10:03:00;17.50;69.60
44477;DHT22;30180;44.788;10.366;2022-12-07T10:05:32;17.50;68.90
44477;DHT22;30180;44.788;10.366;2022-12-07T10:08:03;17.50;68.90
44477;DHT22;30180;44.788;10.366;2022-12-07T10:10:33;17.50;68.90
44477;DHT22;30180;44.788;10.366;2022-12-07T10:13:06;17.50;68.90
44477;DHT22;30180;44.788;10.366;2022-12-07T10:15:45;17.50;68.90
44477;DHT22;30180;44.788;10.366;2022-12-07T10:18:20;17.50;69.00
44477;DHT22;30180;44.788;10.366;2022-12-07T10:21:00;17.50;69.00
44477;DHT22;30180;44.788;10.366;2022-12-07T10:23:29;17.50;69.00
44477;DHT22;30180;44.788;10.366;2022-12-07T10:25:57;17.50;69.00
44477;DHT22;30180;44.788;10.366;2022-12-07T10:28:34;17.50;69.00
44477;DHT22;30180;44.788;10.366;2022-12-07T10:31:16;17.50;69.00
44477;DHT22;30180;44.788;10.366;2022-12-07T10:33:51;17.60;69.10
44477;DHT22;30180;44.788;10.366;2022-12-07T10:36:24;17.50;69.10
44477;DHT22;30180;44.788;10.366;2022-12-07T10:38:58;17.50;69.10
44477;DHT22;30180;44.788;10.366;2022-12-07T10:41:26;17.60;69.20
44477;DHT22;30180;44.788;10.366;2022-12-07T10:43:56;17.60;69.20
44477;DHT22;30180;44.788;10.366;2022-12-07T10:47:05;17.60;69.20
44477;DHT22;30180;44.788;10.366;2022-12-07T10:49:54;17.60;69.30
44477;DHT22;30180;44.788;10.366;2022-12-07T10:52:39;17.60;69.30
44477;DHT22;30180;44.788;10.366;2022-12-07T10:55:23;17.60;69.30
44477;DHT22;30180;44.788;10.366;2022-12-07T10:58:11;17.60;69.30
44477;DHT22;30180;44.788;10.366;2022-12-07T11:00:46;17.70;69.40
44477;DHT22;30180;44.788;10.366;2022-12-07T11:03:39;17.70;69.40
44477;DHT22;30180;44.788;10.366;2022-12-07T11:06:22;17.70;69.40
44477;DHT22;30180;44.788;10.366;2022-12-07T11:09:01;17.70;69.50
44477;DHT22;30180;44.788;10.366;2022-12-07T11:11:35;17.80;70.10
44477;DHT22;30180;44.788;10.366;2022-12-07T11:14:13;17.80;69.50
44477;DHT22;30180;44.788;10.366;2022-12-07T11:16:55;17.80;69.50
44477;DHT22;30180;44.788;10.366;2022-12-07T11:19:34;17.80;69.50
44477;DHT22;30180;44.788;10.366;2022-12-07T11:22:13;17.80;69.50
44477;DHT22;30180;44.788;10.366;2022-12-07T11:24:50;17.80;69.50
44477;DHT22;30180;44.788;10.366;2022-12-07T11:27:29;17.80;69.50
44477;DHT22;30180;44.788;10.366;2022-12-07T11:30:10;17.90;69.50
44477;DHT22;30180;44.788;10.366;2022-12-07T11:33:02;17.90;69.50
44477;DHT22;30180;44.788;10.366;2022-12-07T11:35:42;17.90;69.50
44477;DHT22;30180;44.788;10.366;2022-12-07T11:38:14;17.90;69.50
44477;DHT22;30180;44.788;10.366;2022-12-07T11:40:49;17.90;69.50
44477;DHT22;30180;44.788;10.366;2022-12-07T11:43:22;17.90;69.50
44477;DHT22;30180;44.788;10.366;2022-12-07T11:45:56;17.90;69.40
44477;DHT22;30180;44.788;10.366;2022-12-07T11:48:33;17.90;69.40
44477;DHT22;30180;44.788;10.366;2022-12-07T11:51:03;17.90;69.40
44477;DHT22;30180;44.788;10.366;2022-12-07T11:53:38;17.90;69.40
44477;DHT22;30180;44.788;10.366;2022-12-07T11:56:11;17.90;69.40
44477;DHT22;30180;44.788;10.366;2022-12-07T11:58:48;17.90;69.40
44477;DHT22;30180;44.788;10.366;2022-12-07T12:01:28;17.90;69.40
44477;DHT22;30180;44.788;10.366;2022-12-07T12:04:05;17.90;69.40
44477;DHT22;30180;44.788;10.366;2022-12-07T12:06:35;17.90;69.30
44477;DHT22;30180;44.788;10.366;2022-12-07T12:09:06;17.90;69.30
44477;DHT22;30180;44.788;10.366;2022-12-07T12:15:38;17.90;69.30
44477;DHT22;30180;44.788;10.366;2022-12-07T12:18:28;17.80;69.20
44477;DHT22;30180;44.788;10.366;2022-12-07T12:21:02;17.90;69.30
44477;DHT22;30180;44.788;10.366;2022-12-07T12:23:38;17.90;69.20
44477;DHT22;30180;44.788;10.366;2022-12-07T12:26:16;17.90;69.30
44477;DHT22;30180;44.788;10.366;2022-12-07T12:28:56;17.90;69.20
44477;DHT22;30180;44.788;10.366;2022-12-07T12:31:34;17.90;69.30
44477;DHT22;30180;44.788;10.366;2022-12-07T12:34:29;17.80;69.20
44477;DHT22;30180;44.788;10.366;2022-12-07T12:36:53;17.90;69.30
44477;DHT22;30180;44.788;10.366;2022-12-07T12:39:23;17.90;69.20
44477;DHT22;30180;44.788;10.366;2022-12-07T12:41:59;17.80;69.20
44477;DHT22;30180;44.788;10.366;2022-12-07T12:45:03;17.80;69.20
44477;DHT22;30180;44.788;10.366;2022-12-07T12:47:52;17.80;69.20
44477;DHT22;30180;44.788;10.366;2022-12-07T12:50:22;17.80;69.20
44477;DHT22;30180;44.788;10.366;2022-12-07T12:53:01;17.80;69.10
44477;DHT22;30180;44.788;10.366;2022-12-07T12:56:00;17.80;69.10
44477;DHT22;30180;44.788;10.366;2022-12-07T12:58:43;17.80;69.10
44477;DHT22;30180;44.788;10.366;2022-12-07T13:01:42;17.80;69.10
44477;DHT22;30180;44.788;10.366;2022-12-07T13:04:23;17.80;69.10
44477;DHT22;30180;44.788;10.366;2022-12-07T13:06:52;17.80;69.10
44477;DHT22;30180;44.788;10.366;2022-12-07T13:09:23;17.80;69.10
44477;DHT22;30180;44.788;10.366;2022-12-07T13:12:00;17.80;69.10
44477;DHT22;30180;44.788;10.366;2022-12-07T13:14:55;17.70;69.00
44477;DHT22;30180;44.788;10.366;2022-12-07T13:20:44;17.70;69.00
44477;DHT22;30180;44.788;10.366;2022-12-07T13:23:14;17.70;69.00
44477;DHT22;30180;44.788;10.366;2022-12-07T13:25:51;17.70;69.00
44477;DHT22;30180;44.788;10.366;2022-12-07T13:28:22;17.70;69.00
44477;DHT22;30180;44.788;10.366;2022-12-07T13:31:04;17.70;69.00
44477;DHT22;30180;44.788;10.366;2022-12-07T13:33:37;17.70;69.00
44477;DHT22;30180;44.788;10.366;2022-12-07T13:36:16;17.70;69.70
44477;DHT22;30180;44.788;10.366;2022-12-07T13:38:55;17.70;69.00
44477;DHT22;30180;44.788;10.366;2022-12-07T13:41:25;17.70;69.00
44477;DHT22;30180;44.788;10.366;2022-12-07T13:44:00;17.70;69.00
44477;DHT22;30180;44.788;10.366;2022-12-07T13:46:47;17.60;69.00
44477;DHT22;30180;44.788;10.366;2022-12-07T13:49:19;17.60;69.00
44477;DHT22;30180;44.788;10.366;2022-12-07T13:51:49;17.60;69.00
44477;DHT22;30180;44.788;10.366;2022-12-07T13:54:18;17.70;69.10
44477;DHT22;30180;44.788;10.366;2022-12-07T13:56:51;17.60;69.00
44477;DHT22;30180;44.788;10.366;2022-12-07T13:59:21;17.60;69.00
44477;DHT22;30180;44.788;10.366;2022-12-07T14:01:51;17.60;69.00
44477;DHT22;30180;44.788;10.366;2022-12-07T14:04:30;17.60;69.00
44477;DHT22;30180;44.788;10.366;2022-12-07T14:07:01;17.60;69.00
44477;DHT22;30180;44.788;10.366;2022-12-07T14:09:30;17.60;69.00
44477;DHT22;30180;44.788;10.366;2022-12-07T14:11:58;17.60;69.00
44477;DHT22;30180;44.788;10.366;2022-12-07T14:14:29;17.60;69.00
44477;DHT22;30180;44.788;10.366;2022-12-07T14:17:12;17.60;69.00
44477;DHT22;30180;44.788;10.366;2022-12-07T14:19:48;17.60;69.00
44477;DHT22;30180;44.788;10.366;2022-12-07T14:22:30;17.60;69.00
44477;DHT22;30180;44.788;10.366;2022-12-07T14:25:02;17.60;69.00
44477;DHT22;30180;44.788;10.366;2022-12-07T14:27:47;17.60;69.00
44477;DHT22;30180;44.788;10.366;2022-12-07T14:30:16;17.50;68.90
44477;DHT22;30180;44.788;10.366;2022-12-07T14:32:52;17.50;68.90
44477;DHT22;30180;44.788;10.366;2022-12-07T14:35:20;17.50;68.90
44477;DHT22;30180;44.788;10.366;2022-12-07T14:37:50;17.50;68.90
44477;DHT22;30180;44.788;10.366;2022-12-07T14:40:21;17.50;68.90
44477;DHT22;30180;44.788;10.366;2022-12-07T14:42:52;17.50;68.90
44477;DHT22;30180;44.788;10.366;2022-12-07T14:45:24;17.50;68.90
44477;DHT22;30180;44.788;10.366;2022-12-07T14:47:52;17.50;68.90
44477;DHT22;30180;44.788;10.366;2022-12-07T14:50:43;17.50;68.90
44477;DHT22;30180;44.788;10.366;2022-12-07T14:53:35;17.50;69.00
44477;DHT22;30180;44.788;10.366;2022-12-07T14:56:04;17.50;69.00
44477;DHT22;30180;44.788;10.366;2022-12-07T14:58:33;17.50;69.10
44477;DHT22;30180;44.788;10.366;2022-12-07T15:01:01;17.50;69.00
44477;DHT22;30180;44.788;10.366;2022-12-07T15:03:30;17.50;69.00
44477;DHT22;30180;44.788;10.366;2022-12-07T15:05:58;17.50;69.00
44477;DHT22;30180;44.788;10.366;2022-12-07T15:08:27;17.50;69.00
44477;DHT22;30180;44.788;10.366;2022-12-07T15:10:56;17.50;69.00
44477;DHT22;30180;44.788;10.366;2022-12-07T15:13:25;17.50;69.00
44477;DHT22;30180;44.788;10.366;2022-12-07T15:16:22;17.50;69.00
44477;DHT22;30180;44.788;10.366;2022-12-07T15:18:50;17.50;69.00
44477;DHT22;30180;44.788;10.366;2022-12-07T15:21:39;17.50;69.00
44477;DHT22;30180;44.788;10.366;2022-12-07T15:24:09;17.50;69.00
44477;DHT22;30180;44.788;10.366;2022-12-07T15:26:40;17.50;69.10
44477;DHT22;30180;44.788;10.366;2022-12-07T15:29:09;17.50;69.10
44477;DHT22;30180;44.788;10.366;2022-12-07T15:31:38;17.50;69.10
44477;DHT22;30180;44.788;10.366;2022-12-07T15:34:23;17.50;69.10
44477;DHT22;30180;44.788;10.366;2022-12-07T15:36:52;17.50;69.20
44477;DHT22;30180;44.788;10.366;2022-12-07T15:39:21;17.50;69.20
44477;DHT22;30180;44.788;10.366;2022-12-07T15:41:51;17.50;69.20
44477;DHT22;30180;44.788;10.366;2022-12-07T15:44:19;17.50;69.20
44477;DHT22;30180;44.788;10.366;2022-12-07T15:47:05;17.50;69.20
44477;DHT22;30180;44.788;10.366;2022-12-07T15:49:33;17.50;69.20
44477;DHT22;30180;44.788;10.366;2022-12-07T15:52:02;17.60;69.30
44477;DHT22;30180;44.788;10.366;2022-12-07T15:54:30;17.50;69.20
44477;DHT22;30180;44.788;10.366;2022-12-07T15:57:01;17.60;70.00
44477;DHT22;30180;44.788;10.366;2022-12-07T15:59:29;17.60;69.30